sensor_id;sensor_type;location;lat;lon;timestamp;temperature;humidity
53520;DHT22;39397;53.204;5.778;2023-03-31T00:00:32;9.60;99.90
53520;DHT22;39397;53.204;5.778;2023-03-31T00:02:58;9.60;99.90
53520;DHT22;39397;53.204;5.778;2023-03-31T00:05:24;9.60;99.90
53520;DHT22;39397;53.204;5.778;2023-03-31T00:07:54;9.60;99.90
53520;DHT22;39397;53.204;5.778;2023-03-31T00:10:30;9.60;99.90
53520;DHT22;39397;53.204;5.778;2023-03-31T00:12:58;9.70;99.90
53520;DHT22;39397;53.204;5.778;2023-03-31T00:15:25;9.60;99.90
53520;DHT22;39397;53.204;5.778;2023-03-31T00:17:52;9.70;99.90
53520;DHT22;39397;53.204;5.778;2023-03-31T00:20:17;9.80;99.90
53520;DHT22;39397;53.204;5.778;2023-03-31T00:22:43;9.90;99.90
53520;DHT22;39397;53.204;5.778;2023-03-31T00:25:15;9.80;99.90
53520;DHT22;39397;53.204;5.778;2023-03-31T00:27:42;9.80;99.90
53520;DHT22;39397;53.204;5.778;2023-03-31T00:30:10;9.90;99.90
53520;DHT22;39397;53.204;5.778;2023-03-31T00:32:36;9.90;99.90
53520;DHT22;39397;53.204;5.778;2023-03-31T00:35:02;9.90;99.90
53520;DHT22;39397;53.204;5.778;2023-03-31T00:37:29;9.90;99.90
53520;DHT22;39397;53.204;5.778;2023-03-31T00:39:55;9.90;99.90
53520;DHT22;39397;53.204;5.778;2023-03-31T00:42:22;9.90;99.90
53520;DHT22;39397;53.204;5.778;2023-03-31T00:47:32;9.90;99.90
53520;DHT22;39397;53.204;5.778;2023-03-31T00:49:59;9.80;99.90
53520;DHT22;39397;53.204;5.778;2023-03-31T00:52:33;9.80;99.90
53520;DHT22;39397;53.204;5.778;2023-03-31T00:55:09;10.60;99.90
53520;DHT22;39397;53.204;5.778;2023-03-31T00:57:38;9.60;99.90
53520;DHT22;39397;53.204;5.778;2023-03-31T01:00:09;9.40;99.90
53520;DHT22;39397;53.204;5.778;2023-03-31T01:02:45;9.40;99.90
53520;DHT22;39397;53.204;5.778;2023-03-31T01:05:54;9.40;99.90
53520;DHT22;39397;53.204;5.778;2023-03-31T01:08:23;9.30;99.90
53520;DHT22;39397;53.204;5.778;2023-03-31T01:10:53;9.20;99.90
53520;DHT22;39397;53.204;5.778;2023-03-31T01:13:20;9.10;99.90
53520;DHT22;39397;53.204;5.778;2023-03-31T01:15:47;9.00;99.90
53520;DHT22;39397;53.204;5.778;2023-03-31T01:18:13;9.00;99.90
53520;DHT22;39397;53.204;5.778;2023-03-31T01:29:37;8.70;99.90
53520;DHT22;39397;53.204;5.778;2023-03-31T01:40:47;8.60;99.90
53520;DHT22;39397;53.204;5.778;2023-03-31T01:43:43;8.80;99.90
53520;DHT22;39397;53.204;5.778;2023-03-31T01:46:42;8.40;99.90
53520;DHT22;39397;53.204;5.778;2023-03-31T01:49:17;8.50;99.90
53520;DHT22;39397;53.204;5.778;2023-03-31T01:57:31;8.50;99.90
53520;DHT22;39397;53.204;5.778;2023-03-31T02:00:09;8.60;99.90
53520;DHT22;39397;53.204;5.778;2023-03-31T02:02:39;8.60;99.90
53520;DHT22;39397;53.204;5.778;2023-03-31T02:05:12;8.90;99.90
53520;DHT22;39397;53.204;5.778;2023-03-31T02:07:44;8.70;99.90
53520;DHT22;39397;53.204;5.778;2023-03-31T02:10:14;9.70;99.90
53520;DHT22;39397;53.204;5.778;2023-03-31T02:12:42;8.80;99.90
53520;DHT22;39397;53.204;5.778;2023-03-31T02:15:13;9.10;99.90
53520;DHT22;39397;53.204;5.778;2023-03-31T02:17:42;9.00;99.90
53520;DHT22;39397;53.204;5.778;2023-03-31T02:20:11;9.10;99.90
53520;DHT22;39397;53.204;5.778;2023-03-31T02:22:42;9.20;99.90
53520;DHT22;39397;53.204;5.778;2023-03-31T02:25:13;9.30;99.90
53520;DHT22;39397;53.204;5.778;2023-03-31T02:27:48;9.20;99.90
53520;DHT22;39397;53.204;5.778;2023-03-31T02:30:17;9.30;99.90
53520;DHT22;39397;53.204;5.778;2023-03-31T02:32:44;10.50;99.90
53520;DHT22;39397;53.204;5.778;2023-03-31T02:35:16;7.90;99.90
53520;DHT22;39397;53.204;5.778;2023-03-31T02:37:44;10.10;99.90
53520;DHT22;39397;53.204;5.778;2023-03-31T02:40:18;9.30;99.90
53520;DHT22;39397;53.204;5.778;2023-03-31T02:42:44;9.30;99.90
53520;DHT22;39397;53.204;5.778;2023-03-31T02:45:36;9.40;99.90
53520;DHT22;39397;53.204;5.778;2023-03-31T02:48:08;9.30;99.90
53520;DHT22;39397;53.204;5.778;2023-03-31T03:15:23;9.50;99.90
53520;DHT22;39397;53.204;5.778;2023-03-31T03:17:51;9.50;99.90
53520;DHT22;39397;53.204;5.778;2023-03-31T03:20:20;9.50;99.90
53520;DHT22;39397;53.204;5.778;2023-03-31T03:22:46;9.60;99.90
53520;DHT22;39397;53.204;5.778;2023-03-31T03:25:13;9.60;99.90
53520;DHT22;39397;53.204;5.778;2023-03-31T03:27:39;9.70;99.90
53520;DHT22;39397;53.204;5.778;2023-03-31T03:30:07;9.60;99.90
53520;DHT22;39397;53.204;5.778;2023-03-31T03:32:34;9.60;99.90
53520;DHT22;39397;53.204;5.778;2023-03-31T03:35:00;9.60;99.90
53520;DHT22;39397;53.204;5.778;2023-03-31T03:37:26;9.80;99.90
53520;DHT22;39397;53.204;5.778;2023-03-31T03:39:52;9.70;99.90
53520;DHT22;39397;53.204;5.778;2023-03-31T03:42:18;9.60;99.90
53520;DHT22;39397;53.204;5.778;2023-03-31T03:44:43;9.70;99.90
53520;DHT22;39397;53.204;5.778;2023-03-31T03:47:09;9.80;99.90
53520;DHT22;39397;53.204;5.778;2023-03-31T03:49:35;9.70;99.90
53520;DHT22;39397;53.204;5.778;2023-03-31T03:52:00;9.70;99.90
53520;DHT22;39397;53.204;5.778;2023-03-31T03:54:26;9.70;99.90
53520;DHT22;39397;53.204;5.778;2023-03-31T03:56:52;9.70;99.90
53520;DHT22;39397;53.204;5.778;2023-03-31T03:59:18;9.70;99.90
53520;DHT22;39397;53.204;5.778;2023-03-31T04:01:43;9.70;99.90
53520;DHT22;39397;53.204;5.778;2023-03-31T04:04:09;9.60;99.90
53520;DHT22;39397;53.204;5.778;2023-03-31T04:06:35;9.70;99.90
53520;DHT22;39397;53.204;5.778;2023-03-31T04:09:01;9.70;99.90
53520;DHT22;39397;53.204;5.778;2023-03-31T04:11:27;9.70;99.90
53520;DHT22;39397;53.204;5.778;2023-03-31T04:13:52;9.70;99.90
53520;DHT22;39397;53.204;5.778;2023-03-31T04:16:18;9.70;99.90
53520;DHT22;39397;53.204;5.778;2023-03-31T04:18:47;9.70;99.90
53520;DHT22;39397;53.204;5.778;2023-03-31T04:21:14;9.80;99.90
53520;DHT22;39397;53.204;5.778;2023-03-31T04:23:48;9.80;99.90
53520;DHT22;39397;53.204;5.778;2023-03-31T04:26:16;9.60;99.90
53520;DHT22;39397;53.204;5.778;2023-03-31T04:28:43;9.80;99.90
53520;DHT22;39397;53.204;5.778;2023-03-31T04:31:12;10.60;99.90
53520;DHT22;39397;53.204;5.778;2023-03-31T04:33:53;9.80;99.90
53520;DHT22;39397;53.204;5.778;2023-03-31T04:36:19;9.70;99.90
53520;DHT22;39397;53.204;5.778;2023-03-31T04:38:49;9.90;99.90
53520;DHT22;39397;53.204;5.778;2023-03-31T04:41:21;9.70;99.90
53520;DHT22;39397;53.204;5.778;2023-03-31T04:43:47;9.80;99.90
53520;DHT22;39397;53.204;5.778;2023-03-31T04:46:13;9.80;99.90
53520;DHT22;39397;53.204;5.778;2023-03-31T04:48:39;9.90;99.90
53520;DHT22;39397;53.204;5.778;2023-03-31T04:51:05;9.80;99.90
53520;DHT22;39397;53.204;5.778;2023-03-31T04:53:30;9.90;99.90
53520;DHT22;39397;53.204;5.778;2023-03-31T04:55:56;9.80;99.90
53520;DHT22;39397;53.204;5.778;2023-03-31T04:58:22;9.90;99.90
53520;DHT22;39397;53.204;5.778;2023-03-31T05:00:47;9.90;99.90
53520;DHT22;39397;53.204;5.778;2023-03-31T05:03:13;9.90;99.90
53520;DHT22;39397;53.204;5.778;2023-03-31T05:05:39;9.80;99.90
53520;DHT22;39397;53.204;5.778;2023-03-31T05:08:05;9.90;99.90
53520;DHT22;39397;53.204;5.778;2023-03-31T05:10:30;9.80;99.90
53520;DHT22;39397;53.204;5.778;2023-03-31T05:12:57;9.90;99.90
53520;DHT22;39397;53.204;5.778;2023-03-31T05:15:22;9.90;99.90
53520;DHT22;39397;53.204;5.778;2023-03-31T05:17:52;9.90;99.90
53520;DHT22;39397;53.204;5.778;2023-03-31T05:20:18;9.80;99.90
53520;DHT22;39397;53.204;5.778;2023-03-31T05:22:45;9.90;99.90
53520;DHT22;39397;53.204;5.778;2023-03-31T05:25:12;9.90;99.90
53520;DHT22;39397;53.204;5.778;2023-03-31T05:27:44;10.00;99.90
53520;DHT22;39397;53.204;5.778;2023-03-31T05:30:12;9.90;99.90
53520;DHT22;39397;53.204;5.778;2023-03-31T05:32:38;9.90;99.90
53520;DHT22;39397;53.204;5.778;2023-03-31T05:35:04;9.90;99.90
53520;DHT22;39397;53.204;5.778;2023-03-31T05:37:30;10.00;99.90
53520;DHT22;39397;53.204;5.778;2023-03-31T05:39:56;10.10;99.90
53520;DHT22;39397;53.204;5.778;2023-03-31T05:42:22;9.90;99.90
53520;DHT22;39397;53.204;5.778;2023-03-31T05:44:47;9.90;99.90
53520;DHT22;39397;53.204;5.778;2023-03-31T05:47:14;9.90;99.90
53520;DHT22;39397;53.204;5.778;2023-03-31T05:49:40;9.90;99.90
53520;DHT22;39397;53.204;5.778;2023-03-31T05:52:08;10.10;99.90
53520;DHT22;39397;53.204;5.778;2023-03-31T05:54:34;10.00;99.90
53520;DHT22;39397;53.204;5.778;2023-03-31T05:57:00;10.00;99.90
53520;DHT22;39397;53.204;5.778;2023-03-31T05:59:26;9.90;99.90
53520;DHT22;39397;53.204;5.778;2023-03-31T06:01:57;9.90;99.90
53520;DHT22;39397;53.204;5.778;2023-03-31T06:04:23;10.00;99.90
53520;DHT22;39397;53.204;5.778;2023-03-31T06:06:49;10.00;99.90
53520;DHT22;39397;53.204;5.778;2023-03-31T06:09:16;10.00;99.90
53520;DHT22;39397;53.204;5.778;2023-03-31T06:11:42;10.10;99.90
53520;DHT22;39397;53.204;5.778;2023-03-31T06:14:08;10.00;99.90
53520;DHT22;39397;53.204;5.778;2023-03-31T06:16:34;10.10;99.90
53520;DHT22;39397;53.204;5.778;2023-03-31T06:18:59;10.00;99.90
53520;DHT22;39397;53.204;5.778;2023-03-31T06:21:25;10.00;99.90
53520;DHT22;39397;53.204;5.778;2023-03-31T06:23:51;10.20;99.90
53520;DHT22;39397;53.204;5.778;2023-03-31T06:26:20;10.10;99.90
53520;DHT22;39397;53.204;5.778;2023-03-31T06:28:47;10.20;99.90
53520;DHT22;39397;53.204;5.778;2023-03-31T06:31:16;10.20;99.90
53520;DHT22;39397;53.204;5.778;2023-03-31T06:33:43;10.20;99.90
53520;DHT22;39397;53.204;5.778;2023-03-31T06:36:10;10.00;99.90
53520;DHT22;39397;53.204;5.778;2023-03-31T06:38:37;10.40;99.90
53520;DHT22;39397;53.204;5.778;2023-03-31T06:41:04;10.30;99.90
53520;DHT22;39397;53.204;5.778;2023-03-31T06:43:31;10.30;99.90
53520;DHT22;39397;53.204;5.778;2023-03-31T06:45:57;10.30;99.90
53520;DHT22;39397;53.204;5.778;2023-03-31T06:48:24;10.30;99.90
53520;DHT22;39397;53.204;5.778;2023-03-31T06:50:51;10.40;99.90
53520;DHT22;39397;53.204;5.778;2023-03-31T06:53:17;10.30;99.90
53520;DHT22;39397;53.204;5.778;2023-03-31T06:55:52;10.30;99.90
53520;DHT22;39397;53.204;5.778;2023-03-31T06:58:17;10.30;99.90
53520;DHT22;39397;53.204;5.778;2023-03-31T07:00:43;9.80;99.90
53520;DHT22;39397;53.204;5.778;2023-03-31T07:03:11;10.30;99.90
53520;DHT22;39397;53.204;5.778;2023-03-31T07:05:38;10.40;99.90
53520;DHT22;39397;53.204;5.778;2023-03-31T07:08:04;10.40;99.90
53520;DHT22;39397;53.204;5.778;2023-03-31T07:10:32;10.50;99.90
53520;DHT22;39397;53.204;5.778;2023-03-31T07:12:58;10.50;99.90
53520;DHT22;39397;53.204;5.778;2023-03-31T07:15:25;10.50;99.90
53520;DHT22;39397;53.204;5.778;2023-03-31T07:17:55;10.40;99.90
53520;DHT22;39397;53.204;5.778;2023-03-31T07:20:27;10.40;99.90
53520;DHT22;39397;53.204;5.778;2023-03-31T07:22:53;10.60;99.90
53520;DHT22;39397;53.204;5.778;2023-03-31T07:25:18;10.50;99.90
53520;DHT22;39397;53.204;5.778;2023-03-31T07:27:45;10.60;99.90
53520;DHT22;39397;53.204;5.778;2023-03-31T07:30:17;10.60;99.90
53520;DHT22;39397;53.204;5.778;2023-03-31T07:32:48;10.50;99.90
53520;DHT22;39397;53.204;5.778;2023-03-31T07:35:15;10.50;99.90
53520;DHT22;39397;53.204;5.778;2023-03-31T07:37:43;10.50;99.90
53520;DHT22;39397;53.204;5.778;2023-03-31T07:40:12;10.70;99.90
53520;DHT22;39397;53.204;5.778;2023-03-31T07:42:40;10.50;99.90
53520;DHT22;39397;53.204;5.778;2023-03-31T07:45:07;10.50;99.90
53520;DHT22;39397;53.204;5.778;2023-03-31T07:47:33;10.40;99.90
53520;DHT22;39397;53.204;5.778;2023-03-31T07:49:58;10.40;99.90
53520;DHT22;39397;53.204;5.778;2023-03-31T07:52:24;10.40;99.90
53520;DHT22;39397;53.204;5.778;2023-03-31T07:54:50;10.50;99.90
53520;DHT22;39397;53.204;5.778;2023-03-31T07:57:16;10.40;99.90
53520;DHT22;39397;53.204;5.778;2023-03-31T07:59:47;10.40;99.90
53520;DHT22;39397;53.204;5.778;2023-03-31T08:02:14;10.40;99.90
53520;DHT22;39397;53.204;5.778;2023-03-31T08:04:41;12.20;99.90
53520;DHT22;39397;53.204;5.778;2023-03-31T08:07:08;10.40;99.90
53520;DHT22;39397;53.204;5.778;2023-03-31T08:09:34;10.60;99.90
53520;DHT22;39397;53.204;5.778;2023-03-31T08:11:59;10.50;99.90
53520;DHT22;39397;53.204;5.778;2023-03-31T08:14:27;10.40;99.90
53520;DHT22;39397;53.204;5.778;2023-03-31T08:16:52;10.50;99.90
53520;DHT22;39397;53.204;5.778;2023-03-31T08:19:20;10.50;99.90
53520;DHT22;39397;53.204;5.778;2023-03-31T08:21:46;10.60;99.90
53520;DHT22;39397;53.204;5.778;2023-03-31T08:24:12;10.60;99.90
53520;DHT22;39397;53.204;5.778;2023-03-31T08:26:40;10.60;99.90
53520;DHT22;39397;53.204;5.778;2023-03-31T08:29:06;10.60;99.90
53520;DHT22;39397;53.204;5.778;2023-03-31T08:31:32;10.60;99.90
53520;DHT22;39397;53.204;5.778;2023-03-31T08:33:57;10.60;99.90
53520;DHT22;39397;53.204;5.778;2023-03-31T08:36:24;10.80;99.90
53520;DHT22;39397;53.204;5.778;2023-03-31T08:38:50;10.80;99.90
53520;DHT22;39397;53.204;5.778;2023-03-31T08:44:25;10.90;99.90
53520;DHT22;39397;53.204;5.778;2023-03-31T08:46:50;11.40;99.90
53520;DHT22;39397;53.204;5.778;2023-03-31T08:49:18;11.00;99.90
53520;DHT22;39397;53.204;5.778;2023-03-31T08:51:54;11.10;99.90
53520;DHT22;39397;53.204;5.778;2023-03-31T08:54:31;11.10;99.90
53520;DHT22;39397;53.204;5.778;2023-03-31T08:56:58;11.10;99.90
53520;DHT22;39397;53.204;5.778;2023-03-31T08:59:29;11.40;99.90
53520;DHT22;39397;53.204;5.778;2023-03-31T09:05:40;11.50;99.90
53520;DHT22;39397;53.204;5.778;2023-03-31T09:10:55;11.70;99.90
53520;DHT22;39397;53.204;5.778;2023-03-31T09:19:21;12.00;99.90
53520;DHT22;39397;53.204;5.778;2023-03-31T09:21:52;12.10;99.90
53520;DHT22;39397;53.204;5.778;2023-03-31T09:24:29;12.20;99.90
53520;DHT22;39397;53.204;5.778;2023-03-31T09:27:00;12.30;99.90
53520;DHT22;39397;53.204;5.778;2023-03-31T09:32:05;12.50;99.90
53520;DHT22;39397;53.204;5.778;2023-03-31T09:34:34;12.40;99.90
53520;DHT22;39397;53.204;5.778;2023-03-31T09:37:00;12.60;99.90
53520;DHT22;39397;53.204;5.778;2023-03-31T09:39:26;12.40;99.90
53520;DHT22;39397;53.204;5.778;2023-03-31T09:41:52;12.40;99.90
53520;DHT22;39397;53.204;5.778;2023-03-31T09:44:39;12.40;99.90
53520;DHT22;39397;53.204;5.778;2023-03-31T09:47:20;12.50;99.90
53520;DHT22;39397;53.204;5.778;2023-03-31T09:49:49;12.60;99.90
53520;DHT22;39397;53.204;5.778;2023-03-31T09:52:37;12.60;99.90
53520;DHT22;39397;53.204;5.778;2023-03-31T09:55:17;12.60;99.90
53520;DHT22;39397;53.204;5.778;2023-03-31T09:57:43;12.60;99.90
53520;DHT22;39397;53.204;5.778;2023-03-31T10:02:54;12.60;99.90
53520;DHT22;39397;53.204;5.778;2023-03-31T10:05:33;12.60;99.90
53520;DHT22;39397;53.204;5.778;2023-03-31T10:10:54;12.20;99.90
53520;DHT22;39397;53.204;5.778;2023-03-31T10:13:34;12.30;99.90
53520;DHT22;39397;53.204;5.778;2023-03-31T10:16:06;12.40;99.90
53520;DHT22;39397;53.204;5.778;2023-03-31T10:18:39;12.30;99.90
53520;DHT22;39397;53.204;5.778;2023-03-31T10:21:14;12.30;99.90
53520;DHT22;39397;53.204;5.778;2023-03-31T10:23:46;12.20;99.90
53520;DHT22;39397;53.204;5.778;2023-03-31T10:26:17;12.30;99.90
53520;DHT22;39397;53.204;5.778;2023-03-31T10:28:44;12.60;99.90
53520;DHT22;39397;53.204;5.778;2023-03-31T10:31:13;12.70;99.90
53520;DHT22;39397;53.204;5.778;2023-03-31T10:33:45;12.90;99.90
53520;DHT22;39397;53.204;5.778;2023-03-31T10:36:21;13.00;99.90
53520;DHT22;39397;53.204;5.778;2023-03-31T10:38:49;13.40;99.90
53520;DHT22;39397;53.204;5.778;2023-03-31T10:41:22;13.50;99.90
53520;DHT22;39397;53.204;5.778;2023-03-31T10:43:51;13.70;99.90
53520;DHT22;39397;53.204;5.778;2023-03-31T10:46:17;13.90;99.90
53520;DHT22;39397;53.204;5.778;2023-03-31T10:48:43;13.80;99.90
53520;DHT22;39397;53.204;5.778;2023-03-31T10:51:11;13.90;99.90
53520;DHT22;39397;53.204;5.778;2023-03-31T10:53:41;14.00;99.90
53520;DHT22;39397;53.204;5.778;2023-03-31T10:56:38;14.00;99.90
53520;DHT22;39397;53.204;5.778;2023-03-31T11:18:48;14.90;99.90
53520;DHT22;39397;53.204;5.778;2023-03-31T11:21:26;15.00;99.90
53520;DHT22;39397;53.204;5.778;2023-03-31T11:35:48;14.80;99.90
53520;DHT22;39397;53.204;5.778;2023-03-31T11:43:47;14.10;99.90
53520;DHT22;39397;53.204;5.778;2023-03-31T11:46:24;13.90;99.90
53520;DHT22;39397;53.204;5.778;2023-03-31T11:54:19;13.70;99.90
53520;DHT22;39397;53.204;5.778;2023-03-31T11:56:47;13.50;99.90
53520;DHT22;39397;53.204;5.778;2023-03-31T11:59:17;13.30;99.90
53520;DHT22;39397;53.204;5.778;2023-03-31T12:02:20;13.10;99.90
53520;DHT22;39397;53.204;5.778;2023-03-31T12:04:52;12.90;99.90
53520;DHT22;39397;53.204;5.778;2023-03-31T12:12:44;13.20;99.90
53520;DHT22;39397;53.204;5.778;2023-03-31T12:15:36;13.10;99.90
53520;DHT22;39397;53.204;5.778;2023-03-31T12:18:13;13.40;99.90
53520;DHT22;39397;53.204;5.778;2023-03-31T12:20:43;13.20;99.90
53520;DHT22;39397;53.204;5.778;2023-03-31T12:23:17;13.30;99.90
53520;DHT22;39397;53.204;5.778;2023-03-31T12:26:22;13.30;99.90
53520;DHT22;39397;53.204;5.778;2023-03-31T12:28:58;13.30;99.90
53520;DHT22;39397;53.204;5.778;2023-03-31T12:31:25;13.20;99.90
53520;DHT22;39397;53.204;5.778;2023-03-31T12:33:59;13.30;99.90
53520;DHT22;39397;53.204;5.778;2023-03-31T12:39:50;13.40;99.90
53520;DHT22;39397;53.204;5.778;2023-03-31T12:42:58;13.30;99.90
53520;DHT22;39397;53.204;5.778;2023-03-31T12:45:30;13.30;99.90
53520;DHT22;39397;53.204;5.778;2023-03-31T12:54:01;13.70;99.90
53520;DHT22;39397;53.204;5.778;2023-03-31T12:59:40;13.60;99.90
53520;DHT22;39397;53.204;5.778;2023-03-31T13:04:38;13.60;99.90
53520;DHT22;39397;53.204;5.778;2023-03-31T13:07:07;13.50;99.90
53520;DHT22;39397;53.204;5.778;2023-03-31T13:09:44;13.50;99.90
53520;DHT22;39397;53.204;5.778;2023-03-31T13:12:19;13.50;99.90
53520;DHT22;39397;53.204;5.778;2023-03-31T13:14:47;13.50;99.90
53520;DHT22;39397;53.204;5.778;2023-03-31T13:17:35;13.50;99.90
53520;DHT22;39397;53.204;5.778;2023-03-31T13:22:48;13.50;99.90
53520;DHT22;39397;53.204;5.778;2023-03-31T13:27:57;13.60;99.90
53520;DHT22;39397;53.204;5.778;2023-03-31T13:30:49;13.70;99.90
53520;DHT22;39397;53.204;5.778;2023-03-31T13:33:19;13.90;99.90
53520;DHT22;39397;53.204;5.778;2023-03-31T13:35:53;13.80;99.90
53520;DHT22;39397;53.204;5.778;2023-03-31T13:44:35;14.00;99.90
53520;DHT22;39397;53.204;5.778;2023-03-31T13:46:48;14.10;99.90
53520;DHT22;39397;53.204;5.778;2023-03-31T13:49:46;14.10;99.90
53520;DHT22;39397;53.204;5.778;2023-03-31T13:52:35;14.30;99.90
53520;DHT22;39397;53.204;5.778;2023-03-31T14:00:46;14.30;99.90
53520;DHT22;39397;53.204;5.778;2023-03-31T14:03:36;14.30;99.90
53520;DHT22;39397;53.204;5.778;2023-03-31T14:06:33;14.30;99.90
53520;DHT22;39397;53.204;5.778;2023-03-31T14:11:52;14.40;99.90
53520;DHT22;39397;53.204;5.778;2023-03-31T14:14:18;14.40;99.90
53520;DHT22;39397;53.204;5.778;2023-03-31T14:17:02;14.50;99.90
53520;DHT22;39397;53.204;5.778;2023-03-31T14:22:57;14.30;99.90
53520;DHT22;39397;53.204;5.778;2023-03-31T14:31:09;14.50;99.90
53520;DHT22;39397;53.204;5.778;2023-03-31T14:36:59;14.00;99.90
53520;DHT22;39397;53.204;5.778;2023-03-31T14:39:39;14.20;99.90
53520;DHT22;39397;53.204;5.778;2023-03-31T14:42:13;14.10;99.90
53520;DHT22;39397;53.204;5.778;2023-03-31T14:44:41;14.00;99.90
53520;DHT22;39397;53.204;5.778;2023-03-31T14:47:35;13.80;99.90
53520;DHT22;39397;53.204;5.778;2023-03-31T14:50:17;13.70;99.90
53520;DHT22;39397;53.204;5.778;2023-03-31T14:52:47;13.60;99.90
53520;DHT22;39397;53.204;5.778;2023-03-31T14:55:15;13.50;99.90
53520;DHT22;39397;53.204;5.778;2023-03-31T14:57:42;13.60;99.90
53520;DHT22;39397;53.204;5.778;2023-03-31T15:00:19;13.60;99.90
53520;DHT22;39397;53.204;5.778;2023-03-31T15:02:46;13.60;99.90
53520;DHT22;39397;53.204;5.778;2023-03-31T15:05:33;13.60;99.90
53520;DHT22;39397;53.204;5.778;2023-03-31T15:08:07;13.70;99.90
53520;DHT22;39397;53.204;5.778;2023-03-31T15:10:38;13.70;99.90
53520;DHT22;39397;53.204;5.778;2023-03-31T15:15:56;13.50;99.90
53520;DHT22;39397;53.204;5.778;2023-03-31T15:18:25;13.40;99.90
53520;DHT22;39397;53.204;5.778;2023-03-31T15:20:52;13.40;99.90
53520;DHT22;39397;53.204;5.778;2023-03-31T15:23:26;13.30;99.90
53520;DHT22;39397;53.204;5.778;2023-03-31T15:26:00;13.40;99.90
53520;DHT22;39397;53.204;5.778;2023-03-31T15:28:32;13.30;99.90
53520;DHT22;39397;53.204;5.778;2023-03-31T15:31:01;13.20;99.90
53520;DHT22;39397;53.204;5.778;2023-03-31T15:33:33;13.10;99.90
53520;DHT22;39397;53.204;5.778;2023-03-31T15:36:02;13.10;99.90
53520;DHT22;39397;53.204;5.778;2023-03-31T15:38:28;13.20;99.90
53520;DHT22;39397;53.204;5.778;2023-03-31T15:40:57;13.10;99.90
53520;DHT22;39397;53.204;5.778;2023-03-31T15:43:27;13.10;99.90
53520;DHT22;39397;53.204;5.778;2023-03-31T15:45:59;13.00;99.90
53520;DHT22;39397;53.204;5.778;2023-03-31T15:48:35;13.20;99.90
53520;DHT22;39397;53.204;5.778;2023-03-31T15:51:05;13.10;99.90
53520;DHT22;39397;53.204;5.778;2023-03-31T15:56:01;13.20;99.90
53520;DHT22;39397;53.204;5.778;2023-03-31T16:01:22;13.30;99.90
53520;DHT22;39397;53.204;5.778;2023-03-31T16:03:53;13.20;99.90
53520;DHT22;39397;53.204;5.778;2023-03-31T16:06:41;13.30;99.90
53520;DHT22;39397;53.204;5.778;2023-03-31T16:09:11;13.20;99.90
53520;DHT22;39397;53.204;5.778;2023-03-31T16:11:51;13.40;99.90
53520;DHT22;39397;53.204;5.778;2023-03-31T16:14:33;13.30;99.90
53520;DHT22;39397;53.204;5.778;2023-03-31T16:17:05;13.40;99.90
53520;DHT22;39397;53.204;5.778;2023-03-31T16:19:59;13.30;99.90
53520;DHT22;39397;53.204;5.778;2023-03-31T16:22:32;13.40;99.90
53520;DHT22;39397;53.204;5.778;2023-03-31T16:24:59;13.40;99.90
53520;DHT22;39397;53.204;5.778;2023-03-31T16:27:25;13.30;99.90
53520;DHT22;39397;53.204;5.778;2023-03-31T16:30:11;13.40;99.90
53520;DHT22;39397;53.204;5.778;2023-03-31T16:32:37;13.50;99.90
53520;DHT22;39397;53.204;5.778;2023-03-31T16:35:04;13.50;99.90
53520;DHT22;39397;53.204;5.778;2023-03-31T16:37:30;13.40;99.90
53520;DHT22;39397;53.204;5.778;2023-03-31T16:39:59;13.50;99.90
53520;DHT22;39397;53.204;5.778;2023-03-31T16:42:25;13.30;99.90
53520;DHT22;39397;53.204;5.778;2023-03-31T16:44:51;13.30;99.90
53520;DHT22;39397;53.204;5.778;2023-03-31T16:47:17;13.20;99.90
53520;DHT22;39397;53.204;5.778;2023-03-31T16:49:42;13.40;99.90
53520;DHT22;39397;53.204;5.778;2023-03-31T16:52:08;13.20;99.90
53520;DHT22;39397;53.204;5.778;2023-03-31T16:54:34;13.10;99.90
53520;DHT22;39397;53.204;5.778;2023-03-31T16:57:00;13.10;99.90
53520;DHT22;39397;53.204;5.778;2023-03-31T16:59:26;13.00;99.90
53520;DHT22;39397;53.204;5.778;2023-03-31T17:01:52;13.10;99.90
53520;DHT22;39397;53.204;5.778;2023-03-31T17:04:18;13.00;99.90
53520;DHT22;39397;53.204;5.778;2023-03-31T17:06:45;13.00;99.90
53520;DHT22;39397;53.204;5.778;2023-03-31T17:09:10;13.00;99.90
53520;DHT22;39397;53.204;5.778;2023-03-31T17:11:36;13.00;99.90
53520;DHT22;39397;53.204;5.778;2023-03-31T17:14:02;12.90;99.90
53520;DHT22;39397;53.204;5.778;2023-03-31T17:16:29;12.80;99.90
53520;DHT22;39397;53.204;5.778;2023-03-31T17:18:56;12.80;99.90
53520;DHT22;39397;53.204;5.778;2023-03-31T17:21:21;12.90;99.90
53520;DHT22;39397;53.204;5.778;2023-03-31T17:23:48;12.80;99.90
53520;DHT22;39397;53.204;5.778;2023-03-31T17:26:14;12.80;99.90
53520;DHT22;39397;53.204;5.778;2023-03-31T17:28:40;12.80;99.90
53520;DHT22;39397;53.204;5.778;2023-03-31T17:31:15;12.70;99.90
53520;DHT22;39397;53.204;5.778;2023-03-31T17:33:41;12.70;99.90
53520;DHT22;39397;53.204;5.778;2023-03-31T17:36:08;12.80;99.90
53520;DHT22;39397;53.204;5.778;2023-03-31T17:38:34;12.60;99.90
53520;DHT22;39397;53.204;5.778;2023-03-31T17:41:04;12.50;99.90
53520;DHT22;39397;53.204;5.778;2023-03-31T17:43:30;12.40;99.90
53520;DHT22;39397;53.204;5.778;2023-03-31T17:46:01;12.20;99.90
53520;DHT22;39397;53.204;5.778;2023-03-31T17:48:28;12.10;99.90
53520;DHT22;39397;53.204;5.778;2023-03-31T17:50:54;12.00;99.90
53520;DHT22;39397;53.204;5.778;2023-03-31T17:53:22;12.00;99.90
53520;DHT22;39397;53.204;5.778;2023-03-31T17:55:48;11.90;99.90
53520;DHT22;39397;53.204;5.778;2023-03-31T17:58:14;11.90;99.90
53520;DHT22;39397;53.204;5.778;2023-03-31T18:00:40;11.90;99.90
53520;DHT22;39397;53.204;5.778;2023-03-31T18:03:06;11.90;99.90
53520;DHT22;39397;53.204;5.778;2023-03-31T18:05:34;11.80;99.90
53520;DHT22;39397;53.204;5.778;2023-03-31T18:08:00;11.80;99.90
53520;DHT22;39397;53.204;5.778;2023-03-31T18:10:26;11.70;99.90
53520;DHT22;39397;53.204;5.778;2023-03-31T18:12:51;11.80;99.90
53520;DHT22;39397;53.204;5.778;2023-03-31T18:15:19;11.70;99.90
53520;DHT22;39397;53.204;5.778;2023-03-31T18:17:45;11.70;99.90
53520;DHT22;39397;53.204;5.778;2023-03-31T18:20:12;11.60;99.90
53520;DHT22;39397;53.204;5.778;2023-03-31T18:22:38;11.60;99.90
53520;DHT22;39397;53.204;5.778;2023-03-31T18:25:04;11.60;99.90
53520;DHT22;39397;53.204;5.778;2023-03-31T18:27:30;11.50;99.90
53520;DHT22;39397;53.204;5.778;2023-03-31T18:29:56;11.50;99.90
53520;DHT22;39397;53.204;5.778;2023-03-31T18:32:21;11.60;99.90
53520;DHT22;39397;53.204;5.778;2023-03-31T18:34:48;11.50;99.90
53520;DHT22;39397;53.204;5.778;2023-03-31T18:37:13;11.50;99.90
53520;DHT22;39397;53.204;5.778;2023-03-31T18:39:39;11.50;99.90
53520;DHT22;39397;53.204;5.778;2023-03-31T18:42:05;11.50;99.90
53520;DHT22;39397;53.204;5.778;2023-03-31T18:44:30;11.40;99.90
53520;DHT22;39397;53.204;5.778;2023-03-31T18:46:57;11.50;99.90
53520;DHT22;39397;53.204;5.778;2023-03-31T18:49:22;11.30;99.90